createdAt,value
2023-04-23T00:01:08.803Z,9.46
2023-04-23T00:04:13.865Z,9.51
2023-04-23T00:07:20.555Z,9.36
2023-04-23T00:10:24.104Z,9.36
2023-04-23T00:13:27.578Z,9.46
2023-04-23T00:16:31.088Z,9.38
2023-04-23T00:19:34.330Z,9.40
2023-04-23T00:22:37.820Z,9.25
2023-04-23T00:25:40.865Z,9.31
2023-04-23T00:28:44.124Z,9.03
2023-04-23T00:31:47.746Z,9.15
2023-04-23T00:34:50.976Z,9.16
2023-04-23T00:37:53.926Z,9.17
2023-04-23T00:40:57.498Z,8.90
2023-04-23T00:44:00.764Z,8.94
2023-04-23T00:47:04.125Z,8.98
2023-04-23T00:50:08.288Z,9.02
2023-04-23T00:53:12.616Z,9.02
2023-04-23T00:56:18.001Z,9.02
2023-04-23T00:59:22.018Z,9.10
2023-04-23T01:02:28.127Z,9.06
2023-04-23T01:05:31.399Z,9.17
2023-04-23T01:08:36.456Z,9.18
2023-04-23T01:11:42.050Z,9.19
2023-04-23T01:14:46.174Z,9.18
2023-04-23T01:17:49.485Z,9.16
2023-04-23T01:20:52.708Z,9.12
2023-04-23T01:23:56.185Z,9.13
2023-04-23T01:26:59.144Z,9.09
2023-04-23T01:30:04.927Z,9.18
2023-04-23T01:33:09.200Z,9.16
2023-04-23T01:36:12.711Z,9.08
2023-04-23T01:39:16.101Z,9.05
2023-04-23T01:42:19.649Z,9.03
2023-04-23T01:45:23.091Z,8.99
2023-04-23T01:48:26.571Z,8.94
2023-04-23T01:51:30.600Z,8.97
2023-04-23T01:54:33.849Z,8.89
2023-04-23T01:57:37.280Z,8.96
2023-04-23T02:00:40.635Z,8.89
2023-04-23T02:03:45.228Z,8.81
2023-04-23T02:06:50.520Z,8.88
2023-04-23T02:09:53.769Z,8.88
2023-04-23T02:12:58.436Z,8.90
2023-04-23T02:16:01.828Z,8.90
2023-04-23T02:19:05.415Z,8.90
2023-04-23T02:22:09.388Z,8.69
2023-04-23T02:25:15.828Z,8.71
2023-04-23T02:28:18.978Z,8.74
2023-04-23T02:31:22.909Z,8.79
2023-04-23T02:34:26.293Z,8.66
2023-04-23T02:37:29.480Z,8.75
2023-04-23T02:40:32.517Z,8.75
2023-04-23T02:43:35.901Z,8.79
2023-04-23T02:46:38.831Z,8.84
2023-04-23T02:49:42.108Z,8.77
2023-04-23T02:52:45.456Z,8.72
2023-04-23T02:55:48.722Z,8.77
2023-04-23T02:58:51.881Z,8.62
2023-04-23T03:01:55.456Z,8.64
2023-04-23T03:04:58.777Z,8.76
2023-04-23T03:08:01.760Z,8.71
2023-04-23T03:11:05.272Z,8.60
2023-04-23T03:14:09.462Z,8.60
2023-04-23T03:17:12.679Z,8.63
2023-04-23T03:20:15.695Z,8.60
2023-04-23T03:23:19.344Z,8.54
2023-04-23T03:26:23.876Z,8.56
2023-04-23T03:29:30.811Z,8.53
2023-04-23T03:32:34.485Z,8.45
2023-04-23T03:35:37.742Z,8.40
2023-04-23T03:38:45.212Z,8.19
2023-04-23T03:41:49.673Z,8.13
2023-04-23T03:44:56.161Z,7.99
2023-04-23T03:47:59.057Z,7.85
2023-04-23T03:51:03.412Z,7.71
2023-04-23T03:54:19.664Z,7.74
2023-04-23T03:57:41.542Z,7.69
2023-04-23T04:00:56.148Z,7.68
2023-04-23T04:03:59.672Z,7.53
2023-04-23T04:07:03.187Z,7.50
2023-04-23T04:10:07.035Z,7.62
2023-04-23T04:13:10.069Z,7.75
2023-04-23T04:16:13.514Z,7.89
2023-04-23T04:19:16.764Z,8.02
2023-04-23T04:22:20.259Z,7.98
2023-04-23T04:25:24.326Z,7.82
2023-04-23T04:28:27.767Z,7.66
2023-04-23T04:31:31.394Z,7.62
2023-04-23T04:34:36.312Z,7.67
2023-04-23T04:37:39.281Z,7.84
2023-04-23T04:40:43.970Z,7.88
2023-04-23T04:43:48.488Z,8.20
2023-04-23T04:46:52.925Z,8.58
2023-04-23T04:49:57.833Z,8.89
2023-04-23T04:53:01.030Z,9.19
2023-04-23T04:56:04.043Z,9.59
2023-04-23T04:59:07.192Z,9.89
2023-04-23T05:02:10.526Z,10.41
2023-04-23T05:05:13.979Z,10.47
2023-04-23T05:08:17.602Z,10.70
2023-04-23T05:11:21.213Z,10.75
2023-04-23T05:14:26.802Z,11.13
2023-04-23T05:17:29.858Z,11.30
2023-04-23T05:20:33.033Z,11.51
2023-04-23T05:23:36.630Z,11.64
2023-04-23T05:26:39.631Z,11.86
2023-04-23T05:29:42.584Z,12.21
2023-04-23T05:32:45.809Z,12.60
2023-04-23T05:35:48.873Z,13.04
2023-04-23T05:38:52.783Z,13.45
2023-04-23T05:41:56.413Z,13.66
2023-04-23T05:44:59.420Z,13.65
2023-04-23T05:48:02.511Z,13.15
2023-04-23T05:51:05.592Z,12.80
2023-04-23T05:54:08.542Z,12.52
2023-04-23T05:57:12.360Z,12.26
2023-04-23T06:00:17.143Z,12.34
2023-04-23T06:03:20.587Z,12.31
2023-04-23T06:06:23.935Z,12.38
2023-04-23T06:09:26.964Z,12.33
2023-04-23T06:12:30.137Z,12.33
2023-04-23T06:15:33.309Z,12.52
2023-04-23T06:18:37.849Z,13.18
2023-04-23T06:21:41.266Z,14.00
2023-04-23T06:24:44.435Z,14.57
2023-04-23T06:27:47.635Z,14.97
2023-04-23T06:30:56.190Z,15.12
2023-04-23T06:33:59.643Z,15.70
2023-04-23T06:37:02.593Z,15.92
2023-04-23T06:40:07.209Z,16.08
2023-04-23T06:43:11.292Z,16.28
2023-04-23T06:46:37.295Z,16.71
2023-04-23T06:49:41.324Z,16.88
2023-04-23T06:52:45.372Z,17.18
2023-04-23T06:55:50.020Z,17.38
2023-04-23T06:58:53.172Z,17.89
2023-04-23T07:01:57.981Z,18.02
2023-04-23T07:05:01.382Z,18.16
2023-04-23T07:08:04.773Z,18.54
2023-04-23T07:11:08.197Z,18.77
2023-04-23T07:14:11.299Z,18.98
2023-04-23T07:17:14.190Z,18.93
2023-04-23T07:20:17.312Z,19.15
2023-04-23T07:23:20.589Z,19.61
2023-04-23T07:26:25.603Z,19.59
2023-04-23T07:29:28.751Z,19.50
2023-04-23T07:32:32.150Z,19.80
2023-04-23T07:35:35.675Z,19.75
2023-04-23T07:38:39.087Z,19.50
2023-04-23T07:41:42.911Z,19.69
2023-04-23T07:44:46.462Z,19.96
2023-04-23T07:47:50.847Z,20.00
2023-04-23T07:50:54.298Z,19.63
2023-04-23T07:53:58.414Z,20.06
2023-04-23T07:57:01.487Z,20.17
2023-04-23T08:00:09.432Z,20.15
2023-04-23T08:03:15.374Z,20.37
2023-04-23T08:06:18.832Z,20.42
2023-04-23T08:09:21.695Z,20.39
2023-04-23T08:12:24.541Z,20.54
2023-04-23T08:18:57.837Z,21.04
2023-04-23T08:22:07.891Z,20.89
2023-04-23T08:25:12.840Z,20.94
2023-04-23T08:28:16.439Z,21.10
2023-04-23T08:31:26.428Z,21.15
2023-04-23T08:34:31.819Z,21.17
2023-04-23T08:37:35.731Z,21.34
2023-04-23T08:40:41.516Z,21.42
2023-04-23T08:43:55.877Z,21.40
2023-04-23T08:47:04.944Z,21.51
2023-04-23T08:50:10.400Z,21.63
2023-04-23T08:53:19.908Z,21.72
2023-04-23T08:56:24.352Z,21.61
2023-04-23T08:59:30.813Z,22.04
2023-04-23T09:02:38.486Z,22.04
2023-04-23T09:05:41.908Z,22.37
2023-04-23T09:08:46.648Z,22.43
2023-04-23T09:11:52.803Z,22.46
2023-04-23T09:14:57.632Z,22.36
2023-04-23T09:18:01.867Z,22.40
2023-04-23T09:21:05.892Z,22.21
2023-04-23T09:24:12.926Z,22.26
2023-04-23T09:27:24.164Z,22.12
2023-04-23T09:30:27.802Z,22.36
2023-04-23T09:33:32.942Z,22.48
2023-04-23T09:36:37.750Z,22.46
2023-04-23T09:39:41.661Z,22.46
2023-04-23T09:42:54.665Z,22.45
2023-04-23T09:45:58.186Z,22.35
2023-04-23T09:49:07.896Z,22.45
2023-04-23T09:52:13.783Z,22.45
2023-04-23T09:55:28.433Z,22.59
2023-04-23T09:58:31.582Z,22.84
2023-04-23T10:01:34.604Z,23.18
2023-04-23T10:04:38.782Z,23.51
2023-04-23T10:07:43.095Z,23.61
2023-04-23T10:10:59.974Z,23.56
2023-04-23T10:14:06.929Z,23.41
2023-04-23T10:17:10.959Z,23.41
2023-04-23T10:20:16.350Z,23.22
2023-04-23T10:23:22.448Z,23.59
2023-04-23T10:26:26.357Z,23.76
2023-04-23T10:29:34.195Z,23.79
2023-04-23T10:32:38.991Z,24.05
2023-04-23T10:35:42.081Z,23.85
2023-04-23T10:38:56.601Z,23.80
2023-04-23T10:42:02.398Z,23.95
2023-04-23T10:45:23.280Z,24.01
2023-04-23T10:48:28.846Z,24.30
2023-04-23T10:54:44.484Z,24.04
2023-04-23T10:58:01.206Z,24.22
2023-04-23T11:01:06.091Z,24.34
2023-04-23T11:04:31.115Z,24.34
2023-04-23T11:07:34.750Z,24.56
2023-04-23T11:10:54.934Z,24.68
2023-04-23T11:13:59.617Z,24.60
2023-04-23T11:17:06.868Z,24.50
2023-04-23T11:20:16.558Z,24.45
2023-04-23T11:23:37.598Z,24.08
2023-04-23T11:26:44.043Z,24.06
2023-04-23T11:29:48.070Z,23.78
2023-04-23T11:32:54.707Z,23.95
2023-04-23T11:35:58.151Z,24.17
2023-04-23T11:39:04.133Z,24.54
2023-04-23T11:42:14.430Z,24.45
2023-04-23T11:45:19.035Z,24.60
2023-04-23T11:48:22.242Z,24.57
2023-04-23T11:51:27.169Z,24.48
2023-04-23T11:54:30.409Z,24.35
2023-04-23T11:57:37.797Z,24.14
2023-04-23T12:00:41.613Z,24.27
2023-04-23T12:03:49.576Z,24.13
2023-04-23T12:06:54.890Z,23.77
2023-04-23T12:10:00.776Z,24.07
2023-04-23T12:13:04.087Z,24.18
2023-04-23T12:16:08.585Z,23.99
2023-04-23T12:19:15.772Z,24.11
2023-04-23T12:22:28.488Z,23.83
2023-04-23T12:25:32.053Z,23.72
2023-04-23T12:28:35.531Z,23.79
2023-04-23T12:31:39.309Z,23.74
2023-04-23T12:34:55.956Z,23.53
2023-04-23T12:37:58.949Z,23.59
2023-04-23T12:41:02.172Z,23.72
2023-04-23T12:44:05.594Z,23.83
2023-04-23T12:47:11.571Z,23.88
2023-04-23T12:50:14.583Z,23.67
2023-04-23T12:53:18.782Z,23.44
2023-04-23T12:56:21.678Z,23.25
2023-04-23T12:59:24.903Z,23.24
2023-04-23T13:02:28.355Z,23.34
2023-04-23T13:05:31.702Z,23.49
2023-04-23T13:08:34.648Z,23.35
2023-04-23T13:11:39.420Z,23.22
2023-04-23T13:14:42.818Z,23.11
2023-04-23T13:17:46.168Z,23.00
2023-04-23T13:20:50.052Z,22.90
2023-04-23T13:23:53.425Z,22.96
2023-04-23T13:26:57.219Z,22.96
2023-04-23T13:30:00.764Z,22.91
2023-04-23T13:33:04.589Z,22.89
2023-04-23T13:36:08.714Z,22.81
2023-04-23T13:39:14.320Z,22.61
2023-04-23T13:42:17.759Z,22.42
2023-04-23T13:45:21.010Z,22.33
2023-04-23T13:48:28.697Z,22.34
2023-04-23T13:51:35.191Z,22.16
2023-04-23T13:54:39.981Z,21.80
2023-04-23T13:57:42.931Z,21.63
2023-04-23T14:00:46.506Z,21.48
2023-04-23T14:03:49.723Z,21.50
2023-04-23T14:06:53.056Z,21.49
2023-04-23T14:09:56.272Z,21.53
2023-04-23T14:12:59.383Z,21.54
2023-04-23T14:16:03.679Z,21.36
2023-04-23T14:19:06.927Z,21.31
2023-04-23T14:22:10.265Z,21.45
2023-04-23T14:25:23.892Z,21.58
2023-04-23T14:28:40.961Z,21.72
2023-04-23T14:31:43.948Z,21.83
2023-04-23T14:34:47.149Z,21.83
2023-04-23T14:37:50.039Z,21.87
2023-04-23T14:40:53.854Z,21.80
2023-04-23T14:43:57.136Z,21.71
2023-04-23T14:47:00.525Z,21.64
2023-04-23T14:50:04.232Z,21.67
2023-04-23T14:53:10.236Z,21.65
2023-04-23T14:56:13.329Z,21.42
2023-04-23T14:59:16.412Z,21.20
2023-04-23T15:02:19.579Z,21.09
2023-04-23T15:05:22.541Z,21.04
2023-04-23T15:08:25.994Z,20.95
2023-04-23T15:11:29.535Z,20.89
2023-04-23T15:14:37.491Z,20.87
2023-04-23T15:17:40.840Z,20.81
2023-04-23T15:20:44.618Z,20.91
2023-04-23T15:23:48.007Z,20.77
2023-04-23T15:26:53.518Z,20.76
2023-04-23T15:29:57.113Z,20.62
2023-04-23T15:33:00.321Z,20.54
2023-04-23T15:36:04.255Z,20.36
2023-04-23T15:39:08.761Z,20.19
2023-04-23T15:42:14.334Z,20.19
2023-04-23T15:45:17.577Z,20.17
2023-04-23T15:48:21.553Z,20.12
2023-04-23T15:51:24.528Z,20.06
2023-04-23T15:54:27.431Z,20.01
2023-04-23T15:57:31.030Z,20.01
2023-04-23T16:00:34.434Z,19.86
2023-04-23T16:03:38.054Z,19.69
2023-04-23T16:06:41.321Z,19.59
2023-04-23T16:09:44.522Z,19.51
2023-04-23T16:12:48.695Z,19.49
2023-04-23T16:15:51.871Z,19.29
2023-04-23T16:18:56.361Z,19.17
2023-04-23T16:22:00.903Z,19.18
2023-04-23T16:25:05.112Z,19.31
2023-04-23T16:28:08.648Z,19.29
2023-04-23T16:31:12.716Z,19.33
2023-04-23T16:34:16.074Z,19.37
2023-04-23T16:37:19.862Z,19.41
2023-04-23T16:40:23.056Z,19.48
2023-04-23T16:43:26.351Z,19.41
2023-04-23T16:46:31.504Z,19.31
2023-04-23T16:49:35.499Z,19.23
2023-04-23T16:52:38.812Z,19.07
2023-04-23T16:55:42.079Z,19.09
2023-04-23T16:58:45.376Z,18.95
2023-04-23T17:01:48.430Z,18.86
2023-04-23T17:04:51.957Z,18.76
2023-04-23T17:07:55.474Z,18.72
2023-04-23T17:10:58.458Z,18.65
2023-04-23T17:14:01.724Z,18.59
2023-04-23T17:17:04.978Z,18.55
2023-04-23T17:20:09.008Z,18.46
2023-04-23T17:23:12.680Z,18.49
2023-04-23T17:26:15.923Z,18.39
2023-04-23T17:29:19.634Z,18.28
2023-04-23T17:32:23.767Z,18.12
2023-04-23T17:35:27.014Z,18.02
2023-04-23T17:38:30.499Z,17.80
2023-04-23T17:41:34.067Z,17.73
2023-04-23T17:44:41.112Z,17.66
2023-04-23T17:47:44.616Z,17.34
2023-04-23T17:50:47.829Z,17.35
2023-04-23T17:53:53.696Z,17.40
2023-04-23T17:56:56.592Z,17.25
2023-04-23T18:00:02.373Z,17.17
2023-04-23T18:03:17.790Z,17.19
2023-04-23T18:06:22.164Z,17.05
2023-04-23T18:09:25.581Z,17.10
2023-04-23T18:12:30.261Z,16.93
2023-04-23T18:15:33.656Z,16.92
2023-04-23T18:18:37.019Z,16.87
2023-04-23T18:21:40.850Z,16.87
2023-04-23T18:24:44.818Z,16.79
2023-04-23T18:27:48.973Z,16.71
2023-04-23T18:30:52.556Z,16.66
2023-04-23T18:34:02.386Z,16.57
2023-04-23T18:37:11.277Z,16.65
2023-04-23T18:40:14.978Z,16.62
2023-04-23T18:43:18.899Z,16.63
2023-04-23T18:46:23.255Z,16.68
2023-04-23T18:49:29.745Z,16.75
2023-04-23T18:52:33.254Z,16.72
2023-04-23T18:55:37.156Z,16.57
2023-04-23T18:58:40.962Z,16.48
2023-04-23T19:01:46.327Z,16.56
2023-04-23T19:04:49.606Z,16.36
2023-04-23T19:07:54.671Z,16.28
2023-04-23T19:10:57.907Z,16.34
2023-04-23T19:14:01.935Z,16.21
2023-04-23T19:17:05.464Z,16.44
2023-04-23T19:20:11.423Z,16.47
2023-04-23T19:23:14.835Z,16.41
2023-04-23T19:26:19.094Z,16.30
2023-04-23T19:29:23.352Z,16.29
2023-04-23T19:32:30.134Z,16.43
2023-04-23T19:35:33.929Z,16.56
2023-04-23T19:38:37.802Z,16.38
2023-04-23T19:41:41.440Z,16.62
2023-04-23T19:44:44.706Z,16.68
2023-04-23T19:47:48.169Z,16.73
2023-04-23T19:50:51.320Z,16.76
2023-04-23T19:53:56.042Z,16.63
2023-04-23T19:56:59.464Z,16.86
2023-04-23T20:00:05.106Z,16.87
2023-04-23T20:03:10.095Z,16.88
2023-04-23T20:06:16.500Z,16.83
2023-04-23T20:09:21.189Z,17.02
2023-04-23T20:12:25.444Z,16.94
2023-04-23T20:15:29.206Z,16.77
2023-04-23T20:18:35.592Z,16.64
2023-04-23T20:21:39.810Z,16.47
2023-04-23T20:24:46.408Z,16.58
2023-04-23T20:27:51.119Z,16.53
2023-04-23T20:30:54.334Z,16.42
2023-04-23T20:33:58.043Z,16.36
2023-04-23T20:37:01.327Z,16.21
2023-04-23T20:40:05.690Z,16.26
2023-04-23T20:43:10.042Z,16.20
2023-04-23T20:46:13.200Z,16.08
2023-04-23T20:49:16.905Z,15.92
2023-04-23T20:52:20.118Z,15.93
2023-04-23T20:55:23.336Z,15.89
2023-04-23T20:58:26.734Z,15.72
2023-04-23T21:01:30.645Z,15.66
2023-04-23T21:04:33.799Z,15.58
2023-04-23T21:07:50.926Z,15.48
2023-04-23T21:10:54.099Z,15.46
2023-04-23T21:14:00.201Z,15.43
2023-04-23T21:17:04.177Z,15.41
2023-04-23T21:20:08.717Z,15.34
2023-04-23T21:23:12.627Z,15.35
2023-04-23T21:26:15.801Z,15.37
2023-04-23T21:29:18.886Z,15.34
2023-04-23T21:32:22.152Z,15.35
2023-04-23T21:35:25.167Z,15.34
2023-04-23T21:38:28.537Z,15.37
2023-04-23T21:41:34.284Z,15.30
2023-04-23T21:44:37.551Z,15.12
2023-04-23T21:47:41.718Z,15.03
2023-04-23T21:50:46.151Z,14.90
2023-04-23T21:53:49.550Z,15.05
2023-04-23T21:56:52.485Z,15.01
2023-04-23T21:59:55.674Z,14.97
2023-04-23T22:02:58.927Z,15.07
2023-04-23T22:06:03.350Z,15.08
2023-04-23T22:09:06.434Z,15.26
2023-04-23T22:12:10.024Z,15.32
2023-04-23T22:15:15.433Z,15.28
2023-04-23T22:18:18.545Z,15.25
2023-04-23T22:21:21.853Z,15.12
2023-04-23T22:24:24.725Z,15.11
2023-04-23T22:27:28.481Z,15.05
2023-04-23T22:30:31.772Z,15.00
2023-04-23T22:33:35.217Z,14.99
2023-04-23T22:36:40.720Z,14.97
2023-04-23T22:39:43.970Z,14.94
2023-04-23T22:42:47.689Z,14.90
2023-04-23T22:45:51.074Z,15.01
2023-04-23T22:48:54.905Z,15.14
2023-04-23T22:51:58.085Z,15.06
2023-04-23T22:55:01.426Z,15.05
2023-04-23T22:58:04.952Z,14.96
2023-04-23T23:01:08.359Z,14.79
2023-04-23T23:04:13.195Z,14.62
2023-04-23T23:07:16.317Z,14.47
2023-04-23T23:10:22.746Z,14.48
2023-04-23T23:13:26.157Z,14.52
2023-04-23T23:16:30.664Z,14.45
2023-04-23T23:19:33.856Z,14.33
2023-04-23T23:22:37.675Z,14.26
2023-04-23T23:25:41.242Z,14.15
2023-04-23T23:28:45.465Z,14.05
2023-04-23T23:31:48.551Z,13.98
2023-04-23T23:34:52.007Z,13.87
2023-04-23T23:37:55.137Z,13.78
2023-04-23T23:40:58.174Z,13.73
2023-04-23T23:44:01.205Z,13.82
2023-04-23T23:47:04.313Z,13.86
2023-04-23T23:50:08.306Z,13.89
2023-04-23T23:53:11.676Z,13.95
2023-04-23T23:56:15.287Z,13.97
2023-04-23T23:59:18.649Z,13.90
